ARW weather

Arad International Airport
Arad, Arad, Romania

Public forecast

Using degrees Celsius for public forecast. Weather courtesy of forecast.io.

Current aviation weather report (METAR) for Arad International Airport

Retrieved 2019/12/12 13:30 UTC (0 seconds ago):

LRAR 121330Z 10004KT CAVOK 05/05 Q1006

Aviation forecast (TAF) for Arad International Airport

Forecast is more than 12 hours old.

Retrieved 2012/12/05 09:33 UTC (7 years ago):

TAF TAF LRAR 050800Z 0509/0521 VRB04KT 3000 -SN BR BKN005 OVC010 TEMPO 0509/0513 1500 SN BKN002 OVC005 BECMG 0513/0515 5000 -SN BKN010 OVC025